Time;durP1;ratioP1;P1;durP2;ratioP2;P2;SDS_P1;SDS_P2;PMS_P1;PMS_P2;Temp;Humidity;BMP_temperature;BMP_pressure;BME280_temperature;BME280_humidity;BME280_pressure;Samples;Min_cycle;Max_cycle;Signal;HPM_P1;HPM_P2
2022/12/22 03:26:38;;;;;;;90.85;32.10;;;;;;;7.02;100.00;100234.81;4985120;28;20034;-79
2022/12/22 03:29:05;;;;;;;105.47;34.28;;;;;;;7.02;100.00;100233.97;4959922;28;20046;-79
2022/12/22 03:31:33;;;;;;;128.68;39.10;;;;;;;7.01;100.00;100238.31;4988462;28;20046;-79
2022/12/22 03:34:01;;;;;;;143.05;39.75;;;;;;;7.00;100.00;100236.56;4990083;28;20046;-79
2022/12/22 03:36:28;;;;;;;148.95;40.50;;;;;;;7.00;100.00;100228.69;4987082;28;20105;-79
2022/12/22 03:38:55;;;;;;;122.50;37.28;;;;;;;7.01;100.00;100226.94;4972422;28;20050;-79
2022/12/22 03:46:54;;;;;;;146.10;41.65;;;;;;;7.00;100.00;100223.47;4988507;28;20054;-79
2022/12/22 03:49:22;;;;;;;166.40;42.30;;;;;;;6.99;100.00;100219.09;4986652;28;20053;-80
2022/12/22 03:51:50;;;;;;;167.52;42.72;;;;;;;6.99;100.00;100213.88;4991036;28;20049;-79
2022/12/22 03:54:23;;;;;;;131.30;40.42;;;;;;;6.99;100.00;100216.47;4981714;28;20042;-80
2022/12/22 03:56:51;;;;;;;174.32;43.70;;;;;;;7.00;100.00;100212.13;4981218;28;20061;-80
2022/12/22 03:59:19;;;;;;;172.07;44.17;;;;;;;7.00;100.00;100212.13;4932220;28;20057;-79
2022/12/22 04:01:52;;;;;;;174.70;44.22;;;;;;;7.00;100.00;100218.22;4973843;28;20047;-79
2022/12/22 04:04:22;;;;;;;147.10;40.33;;;;;;;7.00;100.00;100209.50;4986130;28;20061;-80
2022/12/22 04:06:52;;;;;;;177.93;46.05;;;;;;;7.01;100.00;100217.38;4988880;28;20050;-79
2022/12/22 04:09:21;;;;;;;199.40;49.22;;;;;;;7.02;100.00;100213.88;4976635;28;20042;-79
2022/12/22 04:14:34;;;;;;;193.00;47.25;;;;;;;7.02;100.00;100211.25;4959678;28;20058;-78
2022/12/22 04:17:04;;;;;;;233.27;51.38;;;;;;;7.03;100.00;100201.63;5001686;28;20054;-79
2022/12/22 04:19:32;;;;;;;237.45;51.58;;;;;;;7.02;100.00;100200.78;4971824;28;20062;-79
2022/12/22 04:21:59;;;;;;;311.00;56.78;;;;;;;7.02;100.00;100203.38;4987970;28;20046;-79
2022/12/22 04:24:27;;;;;;;221.57;50.58;;;;;;;7.02;100.00;100208.63;4971326;28;20058;-79
2022/12/22 04:26:54;;;;;;;239.65;52.80;;;;;;;7.03;100.00;100210.41;4973015;28;20053;-79
2022/12/22 04:29:21;;;;;;;258.13;51.83;;;;;;;7.01;100.00;100192.91;4947885;28;20104;-79
2022/12/22 04:31:49;;;;;;;292.10;52.63;;;;;;;7.01;100.00;100206.88;4980790;28;20061;-79
2022/12/22 04:34:16;;;;;;;206.82;47.30;;;;;;;7.00;100.00;100205.13;4984150;28;20142;-79
2022/12/22 04:36:43;;;;;;;216.07;46.95;;;;;;;7.01;100.00;100209.50;4989581;28;20480;-79
2022/12/22 04:39:11;;;;;;;136.95;40.72;;;;;;;7.01;100.00;100206.88;4986253;28;20357;-79
2022/12/22 04:41:38;;;;;;;221.07;48.38;;;;;;;7.02;100.00;100208.63;4971831;28;20058;-79
2022/12/22 04:44:06;;;;;;;203.18;49.67;;;;;;;7.03;100.00;100199.91;4968499;28;20045;-79
2022/12/22 04:46:33;;;;;;;160.55;45.85;;;;;;;7.04;100.00;100198.16;4970648;28;20053;-78
2022/12/22 04:49:00;;;;;;;199.90;47.38;;;;;;;7.04;100.00;100203.41;4978409;28;20383;-78
2022/12/22 04:51:28;;;;;;;203.07;48.85;;;;;;;7.03;100.00;100197.31;4972741;28;20682;-78
2022/12/22 04:53:55;;;;;;;194.27;46.80;;;;;;;7.06;100.00;100192.94;4993885;28;20043;-79
2022/12/22 04:56:22;;;;;;;213.63;47.72;;;;;;;7.05;100.00;100191.19;4990256;28;20451;-79
2022/12/22 04:58:50;;;;;;;135.60;41.22;;;;;;;7.05;100.00;100185.94;4978734;28;20050;-79
2022/12/22 05:01:18;;;;;;;179.30;45.38;;;;;;;7.05;100.00;100185.94;4939618;28;21830;-79
2022/12/22 05:03:46;;;;;;;175.15;44.88;;;;;;;7.05;100.00;100191.19;4984632;28;20061;-78
2022/12/22 05:06:14;;;;;;;210.85;48.53;;;;;;;7.05;100.00;100186.84;4971140;28;20063;-79
2022/12/22 05:08:41;;;;;;;178.35;45.03;;;;;;;7.03;100.00;100180.69;4980011;28;20054;-78
2022/12/22 05:11:09;;;;;;;155.93;42.53;;;;;;;7.04;100.00;100177.22;4990919;28;20061;-79
2022/12/22 05:13:36;;;;;;;152.20;43.92;;;;;;;7.03;100.00;100184.19;4968958;28;20497;-81
2022/12/22 05:16:06;;;;;;;150.13;43.03;;;;;;;7.03;100.00;100172.81;4966428;28;20042;-78
2022/12/22 05:18:35;;;;;;;117.20;32.00;;;;;;;7.03;100.00;100178.06;4980071;28;20042;-81
2022/12/22 05:21:05;;;;;;;145.18;40.30;;;;;;;7.01;100.00;100185.94;4992033;28;20297;-78
2022/12/22 05:23:32;;;;;;;155.20;42.03;;;;;;;7.01;100.00;100188.56;4979411;28;20049;-78
2022/12/22 05:26:00;;;;;;;152.50;40.78;;;;;;;7.01;100.00;100192.91;4988064;28;20055;-78
2022/12/22 05:28:28;;;;;;;138.85;40.97;;;;;;;6.99;100.00;100198.16;4970848;28;20066;-79
2022/12/22 05:30:55;;;;;;;136.32;40.05;;;;;;;6.97;100.00;100192.00;4982922;28;20046;-79
2022/12/22 05:33:23;;;;;;;115.90;37.92;;;;;;;6.96;100.00;100186.75;4955725;28;20407;-80
2022/12/22 05:35:51;;;;;;;121.70;37.25;;;;;;;6.96;100.00;100202.47;4962602;28;20055;-79
2022/12/22 05:38:18;;;;;;;126.70;37.45;;;;;;;6.95;100.00;100204.19;4982964;28;20491;-78
2022/12/22 05:40:45;;;;;;;128.48;37.85;;;;;;;6.95;100.00;100196.34;4990771;28;20047;-78
2022/12/22 05:43:13;;;;;;;120.40;36.38;;;;;;;6.94;100.00;100199.84;4988307;28;20062;-79
2022/12/22 05:45:40;;;;;;;104.22;35.30;;;;;;;6.92;100.00;100196.34;4984185;28;20058;-77
2022/12/22 05:48:08;;;;;;;105.05;34.08;;;;;;;6.91;100.00;100198.94;4972535;28;20491;-80
2022/12/22 05:50:35;;;;;;;96.68;31.48;;;;;;;6.85;100.00;100194.53;4989858;28;20054;-79
2022/12/22 05:53:06;;;;;;;84.95;29.27;;;;;;;6.83;100.00;100193.66;4939691;28;20057;-79
2022/12/22 05:55:33;;;;;;;106.97;34.58;;;;;;;6.80;100.00;100180.50;4980980;28;20484;-79
2022/12/22 05:58:01;;;;;;;84.22;29.80;;;;;;;6.77;100.00;100188.38;4973850;28;20510;-79
2022/12/22 06:00:30;;;;;;;87.80;29.95;;;;;;;6.71;100.00;100185.69;5001999;28;20043;-79
2022/12/22 06:02:58;;;;;;;100.63;30.20;;;;;;;6.68;100.00;100185.66;4982963;28;20067;-79
2022/12/22 06:05:25;;;;;;;87.47;29.70;;;;;;;6.62;100.00;100187.38;4962682;28;20046;-78
2022/12/22 06:07:53;;;;;;;102.45;29.38;;;;;;;6.57;100.00;100180.34;4989694;28;20388;-78
2022/12/22 06:10:20;;;;;;;91.07;29.33;;;;;;;6.49;100.00;100193.34;4984501;28;20088;-80
2022/12/22 06:12:48;;;;;;;96.47;30.00;;;;;;;6.42;100.00;100183.69;4997752;28;20050;-78
2022/12/22 06:15:15;;;;;;;92.28;30.35;;;;;;;6.36;100.00;100191.47;4985933;28;20488;-78
2022/12/22 06:17:43;;;;;;;117.10;30.65;;;;;;;6.31;100.00;100188.81;4983226;28;20057;-78
2022/12/22 06:20:12;;;;;;;86.95;31.05;;;;;;;6.25;100.00;100184.38;4955970;28;20107;-77
2022/12/22 06:22:40;;;;;;;92.05;28.65;;;;;;;6.19;100.00;100193.94;4975845;28;20057;-77
2022/12/22 06:25:07;;;;;;;108.22;30.58;;;;;;;6.12;100.00;100185.13;4969469;28;20051;-78
2022/12/22 06:27:43;;;;;;;96.95;30.30;;;;;;;6.03;100.00;100180.69;4991716;28;20050;-77
2022/12/22 06:30:11;;;;;;;112.57;30.25;;;;;;;5.98;100.00;100191.97;4990580;28;20047;-79
2022/12/22 06:32:39;;;;;;;106.93;28.77;;;;;;;5.90;100.00;100198.78;4978544;28;20054;-80
2022/12/22 06:35:07;;;;;;;95.93;27.25;;;;;;;5.81;100.00;100195.22;4956859;28;20500;-78
2022/12/22 06:37:34;;;;;;;78.50;25.67;;;;;;;5.75;100.00;100210.81;4977747;28;20058;-78
2022/12/22 06:40:02;;;;;;;89.75;26.90;;;;;;;5.70;100.00;100199.44;4964135;28;20050;-78
2022/12/22 06:45:16;;;;;;;143.65;32.58;;;;;;;5.54;100.00;100203.59;4981151;28;20043;-78
2022/12/22 06:47:44;;;;;;;146.18;33.13;;;;;;;5.48;100.00;100216.56;4965610;28;20058;-79
2022/12/22 06:50:11;;;;;;;120.15;31.73;;;;;;;5.42;100.00;100222.56;4926945;28;20039;-79
2022/12/22 06:52:39;;;;;;;129.20;30.48;;;;;;;5.40;100.00;100220.81;5002634;28;20042;-79
2022/12/22 06:55:06;;;;;;;131.35;30.25;;;;;;;5.37;100.00;100216.44;4979587;28;20061;-79
2022/12/22 06:57:33;;;;;;;83.05;26.40;;;;;;;5.32;100.00;100218.09;4982290;28;20046;-79
2022/12/22 07:00:03;;;;;;;139.93;30.13;;;;;;;5.28;100.00;100234.56;4957823;28;21178;-79
2022/12/22 07:02:31;;;;;;;68.85;24.92;;;;;;;5.22;100.00;100229.28;4973395;28;20050;-79
2022/12/22 07:04:59;;;;;;;112.20;28.65;;;;;;;5.18;100.00;100232.66;4963906;28;20373;-80
2022/12/22 07:07:26;;;;;;;90.35;27.73;;;;;;;5.13;100.00;100229.13;4953814;28;20051;-79
2022/12/22 07:09:55;;;;;;;122.38;28.98;;;;;;;5.08;100.00;100236.88;4985008;28;20038;-78
2022/12/22 07:12:23;;;;;;;122.70;29.15;;;;;;;5.04;100.00;100235.06;4983638;28;20522;-78
2022/12/22 07:14:50;;;;;;;75.63;23.83;;;;;;;4.98;100.00;100243.69;4974232;28;20472;-78
2022/12/22 07:17:18;;;;;;;74.88;23.73;;;;;;;4.95;100.00;100253.19;4990257;28;20049;-78
2022/12/22 07:19:45;;;;;;;84.97;25.10;;;;;;;4.88;100.00;100245.28;4947252;28;20031;-78
2022/12/22 07:22:12;;;;;;;86.40;23.83;;;;;;;4.81;100.00;100251.25;4940471;28;20057;-78
2022/12/22 07:24:40;;;;;;;63.00;22.23;;;;;;;4.78;100.00;100250.31;4991511;28;20050;-78
2022/12/22 07:27:07;;;;;;;168.77;29.52;;;;;;;4.72;100.00;100248.47;4951335;28;20487;-78
2022/12/22 07:29:35;;;;;;;143.88;28.50;;;;;;;4.68;100.00;100246.66;4986701;28;20057;-79
2022/12/22 07:32:02;;;;;;;129.23;27.17;;;;;;;4.63;100.00;100248.31;4971388;28;20047;-78
2022/12/22 07:34:33;;;;;;;113.07;27.95;;;;;;;4.62;100.00;100254.38;4979937;28;20050;-78
2022/12/22 07:37:00;;;;;;;98.70;26.73;;;;;;;4.65;100.00;100264.88;4961670;28;20043;-78
2022/12/22 07:39:28;;;;;;;103.40;26.77;;;;;;;4.69;100.00;100259.75;4970951;28;20050;-78
2022/12/22 07:44:41;;;;;;;105.93;26.65;;;;;;;4.84;100.00;100266.97;4992766;28;20054;-79
2022/12/22 07:47:08;;;;;;;99.07;25.88;;;;;;;4.90;100.00;100271.41;4991937;28;20415;-78
2022/12/22 07:52:22;;;;;;;123.55;28.92;;;;;;;5.00;100.00;100265.47;4955155;28;20062;-77
2022/12/22 07:54:49;;;;;;;116.60;29.38;;;;;;;5.03;100.00;100270.75;4957435;28;20046;-78
2022/12/22 07:57:16;;;;;;;112.63;26.15;;;;;;;5.03;100.00;100265.53;4978700;28;20055;-78
2022/12/22 07:59:43;;;;;;;175.52;29.02;;;;;;;5.03;100.00;100275.97;4982973;28;20043;-78
2022/12/22 08:02:11;;;;;;;281.35;34.72;;;;;;;5.04;100.00;100276.84;4987811;28;20049;-78
2022/12/22 08:04:39;;;;;;;408.20;36.28;;;;;;;5.04;100.00;100274.25;4988911;28;20380;-78
2022/12/22 08:07:06;;;;;;;481.02;38.22;;;;;;;5.04;100.00;100275.13;4941435;28;20061;-78
2022/12/22 08:09:33;;;;;;;420.08;34.58;;;;;;;5.02;100.00;100279.44;4924207;28;20050;-78
2022/12/22 08:12:01;;;;;;;488.05;41.38;;;;;;;5.00;100.00;100286.38;4960479;28;20049;-78
2022/12/22 08:14:28;;;;;;;546.20;41.67;;;;;;;4.99;100.00;100295.06;4978123;28;20054;-78
2022/12/22 08:16:55;;;;;;;436.20;35.72;;;;;;;5.02;100.00;100292.50;4975806;28;20072;-78
2022/12/22 08:19:22;;;;;;;319.88;28.73;;;;;;;5.01;100.00;100301.19;4990317;28;20038;-77
2022/12/22 08:21:50;;;;;;;469.33;35.13;;;;;;;5.02;100.00;100304.69;4967033;28;20039;-78
2022/12/22 08:24:20;;;;;;;281.52;24.02;;;;;;;4.98;100.00;100305.47;4958874;28;20045;-78
2022/12/22 08:26:53;;;;;;;505.33;36.03;;;;;;;4.95;100.00;100301.06;4954333;28;20065;-78
2022/12/22 08:29:27;;;;;;;544.03;38.83;;;;;;;4.94;100.00;100296.72;4985856;28;20034;-78
2022/12/22 08:31:54;;;;;;;498.88;41.72;;;;;;;4.95;100.00;100298.47;4986887;28;20050;-78
2022/12/22 08:34:22;;;;;;;479.27;36.63;;;;;;;4.99;100.00;100300.28;5006779;28;20062;-78
2022/12/22 08:36:54;;;;;;;299.63;30.50;;;;;;;5.03;100.00;100302.09;4989582;28;20046;-78
2022/12/22 08:39:23;;;;;;;413.73;34.40;;;;;;;5.05;100.00;100305.63;4970950;28;20046;-78
2022/12/22 08:41:51;;;;;;;393.25;36.03;;;;;;;5.08;100.00;100305.69;4958762;28;20058;-78
2022/12/22 08:44:25;;;;;;;317.35;32.10;;;;;;;5.12;100.00;100305.72;4959778;28;20043;-78
2022/12/22 08:46:54;;;;;;;193.02;30.20;;;;;;;5.13;100.00;100315.31;4947051;28;20051;-78
2022/12/22 08:49:22;;;;;;;272.75;31.88;;;;;;;5.16;100.00;100310.13;4954843;29;20039;-78
2022/12/22 08:51:53;;;;;;;267.67;31.00;;;;;;;5.16;100.00;100320.56;4943118;28;20043;-77
2022/12/22 08:54:22;;;;;;;299.85;32.72;;;;;;;5.17;100.00;100314.50;4924555;28;20067;-77
2022/12/22 08:56:50;;;;;;;322.20;37.20;;;;;;;5.18;100.00;100311.94;4920913;28;20397;-78
2022/12/22 08:59:17;;;;;;;290.20;33.50;;;;;;;5.20;100.00;100309.34;4948128;28;20039;-79
2022/12/22 09:01:46;;;;;;;275.05;34.13;;;;;;;5.22;100.00;100307.63;4941531;28;20052;-78
2022/12/22 09:04:16;;;;;;;232.20;32.55;;;;;;;5.21;100.00;100314.56;4942215;29;20050;-79
2022/12/22 09:06:44;;;;;;;196.27;31.20;;;;;;;5.23;100.00;100309.38;4942963;29;20052;-78
2022/12/22 09:09:13;;;;;;;176.85;30.90;;;;;;;5.24;100.00;100316.38;4962326;28;20035;-78
2022/12/22 09:11:41;;;;;;;172.23;30.83;;;;;;;5.24;100.00;100322.47;4942794;28;20536;-78
2022/12/22 09:14:09;;;;;;;140.55;28.42;;;;;;;5.28;100.00;100336.47;4949485;29;20054;-78
2022/12/22 09:16:38;;;;;;;156.38;29.02;;;;;;;5.28;100.00;100321.66;4963633;28;20048;-78
2022/12/22 09:19:06;;;;;;;143.85;30.20;;;;;;;5.31;100.00;100333.88;4958312;28;20062;-79
2022/12/22 09:21:34;;;;;;;159.02;30.88;;;;;;;5.32;100.00;100325.19;4965043;28;20417;-78
2022/12/22 09:24:03;;;;;;;130.38;30.25;;;;;;;5.32;100.00;100332.16;4959388;28;20063;-78
2022/12/22 09:26:31;;;;;;;171.80;29.15;;;;;;;5.32;100.00;100322.59;4970165;28;20413;-78
2022/12/22 09:28:58;;;;;;;174.32;29.60;;;;;;;5.34;100.00;100327.84;4938874;28;20043;-78
2022/12/22 09:31:27;;;;;;;189.38;27.85;;;;;;;5.31;100.00;100330.41;4939238;29;20059;-79
2022/12/22 09:33:54;;;;;;;145.38;26.05;;;;;;;5.28;100.00;100333.84;4948571;28;20068;-78
2022/12/22 09:36:25;;;;;;;139.68;26.95;;;;;;;5.25;100.00;100341.63;4950708;28;20393;-79
2022/12/22 09:38:52;;;;;;;128.85;28.30;;;;;;;5.25;100.00;100337.31;4959643;28;20043;-79
2022/12/22 09:41:26;;;;;;;143.02;26.77;;;;;;;5.27;100.00;100347.75;4945171;29;20047;-78
2022/12/22 09:43:55;;;;;;;159.70;29.55;;;;;;;5.29;100.00;100340.81;4950460;28;20046;-78
2022/12/22 09:46:25;;;;;;;150.40;28.50;;;;;;;5.31;100.00;100348.69;4985520;28;20156;-78
2022/12/22 09:48:53;;;;;;;196.68;30.40;;;;;;;5.33;100.00;100345.25;4984797;28;20058;-78
2022/12/22 09:51:22;;;;;;;141.48;27.17;;;;;;;5.35;100.00;100345.25;4983829;28;20038;-79
2022/12/22 09:53:57;;;;;;;139.38;26.73;;;;;;;5.35;100.00;100346.16;4986128;28;20407;-79
2022/12/22 09:56:26;;;;;;;105.32;26.02;;;;;;;5.37;100.00;100348.78;4956785;28;20511;-79
2022/12/22 09:58:55;;;;;;;98.43;23.70;;;;;;;5.37;100.00;100344.47;4962789;28;20065;-78
2022/12/22 10:01:35;;;;;;;112.10;26.92;;;;;;;5.39;100.00;100344.50;4982015;28;20080;-78
2022/12/22 10:04:28;;;;;;;96.63;26.20;;;;;;;5.44;100.00;100340.19;4985977;28;20055;-79
2022/12/22 10:07:03;;;;;;;90.53;23.30;;;;;;;5.49;100.00;100335.06;4973294;28;20043;-79
2022/12/22 10:09:31;;;;;;;79.65;22.60;;;;;;;5.54;100.00;100334.28;4980105;28;20058;-78
2022/12/22 10:12:21;;;;;;;73.55;21.88;;;;;;;5.62;100.00;100331.78;4979878;28;20061;-79
2022/12/22 10:14:55;;;;;;;72.82;21.10;;;;;;;5.70;100.00;100335.38;4942882;28;20053;-78
2022/12/22 10:17:31;;;;;;;75.72;20.25;;;;;;;5.78;100.00;100331.13;4980078;28;20051;-78
2022/12/22 10:20:29;;;;;;;58.50;19.23;;;;;;;5.89;100.00;100344.34;4993114;28;20492;-79
2022/12/22 10:23:25;;;;;;;47.70;16.70;;;;;;;5.99;100.00;100350.63;4944320;28;20054;-79
2022/12/22 10:25:56;;;;;;;51.38;17.20;;;;;;;6.05;100.00;100348.97;4974859;28;20050;-78
2022/12/22 10:28:47;;;;;;;45.65;15.48;;;;;;;6.14;100.00;100339.50;4984565;28;20500;-78
2022/12/22 10:31:19;;;;;;;;;;;;;;;6.18;100.00;100344.81;4957617;28;20046;-79
2022/12/22 10:33:50;;;;;;;33.42;12.93;;;;;;;6.22;100.00;100345.72;4974345;28;19925;-78
2022/12/22 10:36:28;;;;;;;27.92;12.80;;;;;;;6.21;100.00;100344.81;4970363;28;20531;-78
2022/12/22 10:39:05;;;;;;;27.63;13.02;;;;;;;6.25;100.00;100340.50;4987716;28;20047;-78
2022/12/22 10:41:40;;;;;;;34.95;12.25;;;;;;;6.30;100.00;100349.31;4954810;28;20050;-78
2022/12/22 10:44:19;;;;;;;30.63;12.80;;;;;;;6.35;100.00;100351.97;4986647;28;20054;-77
2022/12/22 10:46:56;;;;;;;31.08;13.30;;;;;;;6.44;100.00;100354.69;4958329;28;20412;-78
2022/12/22 10:49:26;;;;;;;27.83;12.88;;;;;;;6.54;100.00;100355.69;4974528;28;20046;-78
2022/12/22 10:52:09;;;;;;;31.27;12.20;;;;;;;6.63;100.00;100363.66;4990061;28;20403;-77
2022/12/22 10:54:39;;;;;;;19.58;10.82;;;;;;;6.69;100.00;100357.59;4985001;28;20395;-79
2022/12/22 10:57:13;;;;;;;19.75;10.75;;;;;;;6.66;100.00;100366.31;4964310;28;20053;-78
2022/12/22 10:59:49;;;;;;;25.40;9.48;;;;;;;6.63;100.00;100361.94;4967068;28;20492;-79
2022/12/22 11:02:19;;;;;;;26.00;10.15;;;;;;;6.62;100.00;100369.75;4942241;28;23344;-78
2022/12/22 11:04:48;;;;;;;21.48;9.75;;;;;;;6.62;100.00;100372.38;4969393;28;20046;-78
2022/12/22 11:07:16;;;;;;;21.05;8.55;;;;;;;6.58;100.00;100365.34;4980052;28;20042;-78
2022/12/22 11:09:44;;;;;;;20.75;9.52;;;;;;;6.60;100.00;100366.25;4961149;28;20050;-78
2022/12/22 11:12:34;;;;;;;27.13;9.60;;;;;;;6.63;100.00;100369.78;4972711;28;20046;-78
2022/12/22 11:15:07;;;;;;;;;;;;;;;6.63;100.00;100364.53;4971213;28;20495;-77
2022/12/22 11:17:52;;;;;;;27.77;10.43;;;;;;;6.68;100.00;100366.34;4962274;28;19922;-79
2022/12/22 11:20:33;;;;;;;21.55;10.02;;;;;;;6.72;100.00;100355.91;4987958;28;20053;-77
2022/12/22 11:23:27;;;;;;;19.85;9.48;;;;;;;6.72;100.00;100357.66;5000047;28;20042;-79
2022/12/22 11:26:05;;;;;;;16.63;8.40;;;;;;;6.72;100.00;100358.50;4980505;28;20046;-77
2022/12/22 11:28:33;;;;;;;18.02;8.90;;;;;;;6.74;100.00;100369.88;4969342;28;20051;-78
2022/12/22 11:31:38;;;;;;;17.38;8.15;;;;;;;6.82;100.00;100377.81;4972060;28;20110;-77
2022/12/22 11:35:07;;;;;;;22.20;7.72;;;;;;;6.88;100.00;100372.69;4940908;28;20050;-80
2022/12/22 11:37:41;;;;;;;21.23;9.52;;;;;;;6.91;100.00;100380.53;4883486;29;20063;-78
2022/12/22 11:40:40;;;;;;;28.75;9.65;;;;;;;6.92;100.00;100379.69;4947329;28;20050;-79
2022/12/22 11:43:31;;;;;;;23.02;9.35;;;;;;;6.98;100.00;100384.13;4950500;28;20065;-78
2022/12/22 11:46:13;;;;;;;20.05;8.68;;;;;;;7.02;100.00;100373.69;4976320;28;20510;-77
2022/12/22 11:49:04;;;;;;;21.58;8.52;;;;;;;7.09;100.00;100366.78;4952001;28;20053;-78
2022/12/22 11:52:05;;;;;;;19.52;8.00;;;;;;;7.12;100.00;100372.03;4985315;28;20058;-77
2022/12/22 11:54:39;;;;;;;21.50;9.38;;;;;;;7.15;100.00;100377.31;4963458;28;20054;-77
2022/12/22 11:57:36;;;;;;;21.77;8.43;;;;;;;7.15;100.00;100386.91;4955643;28;20500;-78
2022/12/22 12:00:14;;;;;;;25.08;8.93;;;;;;;7.10;100.00;100388.59;4967932;28;20047;-77
2022/12/22 12:03:19;;;;;;;20.45;9.55;;;;;;;7.05;100.00;100390.28;4933032;28;20050;-77
2022/12/22 12:06:05;;;;;;;17.25;8.60;;;;;;;6.99;100.00;100389.38;4982294;28;20046;-76
2022/12/22 12:08:54;;;;;;;32.20;9.10;;;;;;;6.99;100.00;100383.25;4965117;28;20061;-77
2022/12/22 12:11:35;;;;;;;21.52;8.45;;;;;;;7.02;100.00;100385.91;4959242;28;20045;-77
2022/12/22 12:14:34;;;;;;;27.75;9.10;;;;;;;7.02;100.00;100386.78;4976966;28;20050;-78
2022/12/22 12:17:17;;;;;;;19.27;8.73;;;;;;;7.05;100.00;100395.53;4982316;28;20050;-78
2022/12/22 12:20:19;;;;;;;22.40;7.78;;;;;;;7.03;100.00;100385.94;4949096;28;20426;-78
2022/12/22 12:23:09;;;;;;;18.13;7.80;;;;;;;7.03;100.00;100385.94;4990389;28;20050;-81
2022/12/22 12:25:43;;;;;;;17.75;7.35;;;;;;;7.02;100.00;100373.69;4975005;28;20038;-78
2022/12/22 12:28:38;;;;;;;15.57;6.75;;;;;;;7.04;100.00;100376.31;4981887;28;20039;-78
2022/12/22 12:31:11;;;;;;;15.82;6.53;;;;;;;7.05;100.00;100369.31;4972198;28;20487;-79
2022/12/22 12:33:50;;;;;;;14.05;5.28;;;;;;;7.05;100.00;100364.09;4979501;28;20127;-79
2022/12/22 12:36:28;;;;;;;15.30;4.97;;;;;;;7.06;100.00;100363.25;4959772;28;20050;-79
2022/12/22 12:39:16;;;;;;;12.18;4.80;;;;;;;7.06;100.00;100373.72;4995106;28;20042;-79
2022/12/22 12:41:58;;;;;;;17.70;5.38;;;;;;;7.05;100.00;100382.44;4984798;28;20062;-78
2022/12/22 12:44:34;;;;;;;11.80;4.07;;;;;;;7.03;100.00;100366.69;4971834;28;20046;-78
2022/12/22 12:47:22;;;;;;;17.55;4.45;;;;;;;7.04;100.00;100378.94;4982149;28;20042;-79
2022/12/22 12:49:54;;;;;;;9.40;4.10;;;;;;;7.09;100.00;100390.34;4936522;28;20042;-78
2022/12/22 12:52:42;;;;;;;18.75;4.38;;;;;;;7.10;100.00;100388.59;4988541;28;20049;-78
2022/12/22 12:55:28;;;;;;;14.43;4.30;;;;;;;7.10;100.00;100392.09;4986363;28;20050;-78
2022/12/22 12:58:02;;;;;;;13.13;4.57;;;;;;;7.09;100.00;100382.50;4979233;28;20038;-78
2022/12/22 13:00:31;;;;;;;14.20;4.10;;;;;;;7.07;100.00;100381.59;4966180;28;20076;-78
2022/12/22 13:03:08;;;;;;;20.08;4.72;;;;;;;7.04;100.00;100386.78;4980787;28;20031;-78
2022/12/22 13:05:58;;;;;;;14.55;4.35;;;;;;;7.00;100.00;100380.63;4955803;28;20055;-77
2022/12/22 13:08:31;;;;;;;19.08;5.25;;;;;;;7.00;100.00;100378.03;4985983;28;20054;-78
2022/12/22 13:10:59;;;;;;;14.23;4.90;;;;;;;7.01;100.00;100381.50;4965877;28;20050;-77
2022/12/22 13:13:26;;;;;;;15.77;5.18;;;;;;;7.00;100.00;100387.63;4979311;28;20050;-78
2022/12/22 13:16:06;;;;;;;12.20;4.40;;;;;;;6.98;100.00;100389.38;4978822;28;20492;-77
2022/12/22 13:18:33;;;;;;;15.23;5.10;;;;;;;6.97;100.00;100396.31;4972381;28;20050;-78
2022/12/22 13:21:25;;;;;;;15.48;3.88;;;;;;;6.96;100.00;100386.72;4961865;28;20050;-77
2022/12/22 13:24:21;;;;;;;10.35;4.32;;;;;;;6.97;100.00;100398.94;4997283;28;20050;-77
2022/12/22 13:26:54;;;;;;;13.73;4.35;;;;;;;6.98;100.00;100395.47;4987860;28;20384;-78
2022/12/22 13:29:21;;;;;;;13.45;4.30;;;;;;;6.98;100.00;100397.22;4977795;28;20046;-77
2022/12/22 13:31:58;;;;;;;9.95;3.78;;;;;;;6.99;100.00;100396.34;4978071;28;20042;-78
2022/12/22 13:34:37;;;;;;;11.45;4.70;;;;;;;6.97;100.00;100398.94;4971900;28;20081;-78
2022/12/22 13:37:27;;;;;;;16.00;3.63;;;;;;;6.98;100.00;100410.31;4948003;28;20045;-77
2022/12/22 13:40:36;;;;;;;17.05;4.22;;;;;;;6.96;100.00;100406.81;4967567;28;20062;-77
2022/12/22 13:43:15;;;;;;;7.43;3.20;;;;;;;6.94;100.00;100408.53;4987933;28;20051;-77
2022/12/22 13:45:46;;;;;;;13.13;3.50;;;;;;;6.95;100.00;100410.28;4975249;28;20053;-77
2022/12/22 13:48:23;;;;;;;12.40;3.85;;;;;;;6.95;100.00;100413.75;4985462;28;20061;-77
2022/12/22 13:50:54;;;;;;;17.02;4.22;;;;;;;6.98;100.00;100408.56;4981984;28;20047;-77
2022/12/22 13:53:31;;;;;;;15.18;3.05;;;;;;;7.00;100.00;100401.59;4956787;28;20046;-77
2022/12/22 13:56:26;;;;;;;12.73;3.42;;;;;;;7.03;100.00;100396.41;4974454;28;20039;-77
2022/12/22 13:59:00;;;;;;;12.38;3.25;;;;;;;7.07;100.00;100404.28;4979594;28;20042;-78
2022/12/22 14:01:27;;;;;;;12.13;3.05;;;;;;;7.09;100.00;100398.22;4964529;28;20050;-77
2022/12/22 14:04:02;;;;;;;12.57;3.28;;;;;;;7.12;100.00;100403.47;4979737;28;20042;-77
2022/12/22 14:06:34;;;;;;;12.43;3.00;;;;;;;7.11;100.00;100404.34;4990679;28;20061;-77
2022/12/22 14:09:28;;;;;;;7.07;3.20;;;;;;;7.13;100.00;100422.72;4949613;28;20054;-77
2022/12/22 14:12:06;;;;;;;16.23;3.60;;;;;;;7.13;100.00;100418.34;4972686;28;20050;-77
2022/12/22 14:14:40;;;;;;;10.57;3.00;;;;;;;7.13;100.00;100414.84;4985649;28;20050;-79
2022/12/22 14:17:26;;;;;;;14.65;2.70;;;;;;;7.14;100.00;100411.34;4983599;28;20825;-78
2022/12/22 14:19:57;;;;;;;15.73;3.22;;;;;;;7.15;100.00;100419.22;4981382;28;20046;-78
2022/12/22 14:22:41;;;;;;;17.90;2.88;;;;;;;7.16;100.00;100414.84;4979143;28;20050;-79
2022/12/22 14:25:20;;;;;;;9.43;3.22;;;;;;;7.18;100.00;100418.38;4963934;28;20928;-78
2022/12/22 14:27:53;;;;;;;13.55;3.20;;;;;;;7.20;100.00;100416.63;4985715;28;20047;-78
2022/12/22 14:30:23;;;;;;;14.00;3.50;;;;;;;7.21;100.00;100423.66;4975270;28;20103;-78
2022/12/22 14:32:55;;;;;;;12.90;3.72;;;;;;;7.22;100.00;100425.38;4988458;28;20053;-78
2022/12/22 14:35:26;;;;;;;7.30;2.60;;;;;;;7.22;100.00;100422.78;4951759;28;20509;-78
2022/12/22 14:38:15;;;;;;;17.20;4.60;;;;;;;7.22;100.00;100425.38;4967940;28;20050;-79
2022/12/22 14:40:43;;;;;;;16.75;5.88;;;;;;;7.22;100.00;100428.00;4984765;28;20046;-80
2022/12/22 14:43:15;;;;;;;14.07;4.10;;;;;;;7.22;100.00;100412.28;4963202;28;20061;-79
2022/12/22 14:45:44;;;;;;;12.68;3.92;;;;;;;7.23;100.00;100417.56;4957734;28;20094;-80
2022/12/22 14:48:26;;;;;;;15.70;3.53;;;;;;;7.24;100.00;100418.44;4991878;28;20042;-79
2022/12/22 14:50:54;;;;;;;14.32;5.13;;;;;;;7.25;100.00;100424.56;4966443;28;20415;-81
2022/12/22 14:53:25;;;;;;;13.90;4.68;;;;;;;7.24;100.00;100418.44;4966698;28;20046;-81
2022/12/22 14:55:53;;;;;;;12.65;4.40;;;;;;;7.22;100.00;100423.69;4979495;28;20049;-80
2022/12/22 14:58:24;;;;;;;15.13;3.92;;;;;;;7.20;100.00;100421.88;4979004;28;20062;-80
2022/12/22 15:01:19;;;;;;;19.90;3.33;;;;;;;7.18;100.00;100427.13;4956542;28;20085;-80
2022/12/22 15:04:03;;;;;;;11.02;3.75;;;;;;;7.17;100.00;100416.63;4981501;28;20476;-79
2022/12/22 15:06:40;;;;;;;12.68;4.20;;;;;;;7.13;100.00;100417.47;4980368;28;20042;-78
2022/12/22 15:09:24;;;;;;;14.02;3.80;;;;;;;7.08;100.00;100416.53;4950104;28;20065;-78
2022/12/22 15:12:16;;;;;;;17.02;4.00;;;;;;;7.07;100.00;100409.50;4967489;28;20053;-80
2022/12/22 15:14:48;;;;;;;12.32;4.20;;;;;;;7.05;100.00;100419.09;4995583;28;20042;-80
2022/12/22 15:17:24;;;;;;;11.02;3.72;;;;;;;7.03;100.00;100419.09;4982928;28;20046;-78
2022/12/22 15:19:56;;;;;;;10.13;4.22;;;;;;;7.00;100.00;100419.94;4979257;28;20053;-79